Time;durP1;ratioP1;P1;durP2;ratioP2;P2;SDS_P1;SDS_P2;PMS_P1;PMS_P2;Temp;Humidity;BMP_temperature;BMP_pressure;BME280_temperature;BME280_humidity;BME280_pressure;Samples;Min_cycle;Max_cycle;Signal;HPM_P1;HPM_P2
2021/11/04 00:00:06;;;;;;;49.30;11.38;;;;;;;4.50;53.03;100388.91;4983142;28;20042;-67
2021/11/04 00:02:38;;;;;;;17.52;10.05;;;;;;;4.60;53.16;100390.41;4982996;28;20038;-67
2021/11/04 00:05:06;;;;;;;45.58;11.57;;;;;;;4.61;53.43;100386.94;4981896;28;20038;-66
2021/11/04 00:07:32;;;;;;;20.20;9.75;;;;;;;4.54;53.23;100391.41;4982648;28;20096;-66
2021/11/04 00:09:57;;;;;;;17.80;10.02;;;;;;;4.56;52.98;100401.69;4986733;28;20030;-66
2021/11/04 00:12:23;;;;;;;23.27;10.15;;;;;;;4.42;53.10;100402.84;4982285;28;20093;-66
2021/11/04 00:14:48;;;;;;;18.60;8.93;;;;;;;4.55;53.18;100394.84;4981662;28;20042;-66
2021/11/04 00:17:14;;;;;;;24.30;10.57;;;;;;;4.48;53.58;100401.03;4980844;28;20518;-66
2021/11/04 00:19:39;;;;;;;18.83;9.52;;;;;;;4.56;53.61;100389.59;4983023;28;20042;-67
2021/11/04 00:22:05;;;;;;;37.42;10.98;;;;;;;4.54;53.62;100391.41;4981882;28;20038;-67
2021/11/04 00:24:30;;;;;;;20.92;10.85;;;;;;;4.52;53.54;100392.31;4997093;28;20034;-67
2021/11/04 00:26:57;;;;;;;22.80;11.82;;;;;;;4.66;53.17;100390.28;4982002;28;20046;-67
2021/11/04 00:29:24;;;;;;;20.38;10.35;;;;;;;4.69;53.13;100379.81;4996645;28;20376;-67
2021/11/04 00:31:51;;;;;;;21.58;10.80;;;;;;;4.72;52.74;100384.97;4987187;28;20125;-67
2021/11/04 00:34:16;;;;;;;18.52;10.57;;;;;;;4.75;52.91;100373.66;4982844;28;20395;-67
2021/11/04 00:36:44;;;;;;;24.05;11.77;;;;;;;4.67;53.21;100381.59;4982373;28;20053;-67
2021/11/04 00:39:09;;;;;;;18.88;9.88;;;;;;;4.63;53.03;100385.13;4981716;28;20042;-67
2021/11/04 00:41:35;;;;;;;36.20;12.38;;;;;;;4.50;53.20;100386.31;4982803;28;20040;-66
2021/11/04 00:44:02;;;;;;;21.75;10.35;;;;;;;4.39;53.36;100391.75;4982961;28;20133;-67
2021/11/04 00:46:30;;;;;;;26.65;11.85;;;;;;;4.34;53.55;100380.63;4982852;28;20546;-67
2021/11/04 00:48:55;;;;;;;41.88;13.35;;;;;;;4.29;53.58;100375.56;4978805;28;20716;-68
2021/11/04 00:51:21;;;;;;;22.38;10.48;;;;;;;4.27;53.90;100366.97;4981694;28;20062;-66
2021/11/04 00:53:46;;;;;;;21.67;10.70;;;;;;;4.29;53.95;100365.19;4981643;28;20048;-66
2021/11/04 00:56:11;;;;;;;22.05;11.15;;;;;;;4.51;53.10;100367.31;4981766;28;20026;-68
2021/11/04 00:58:37;;;;;;;20.65;10.63;;;;;;;4.45;53.55;100368.28;4980294;28;20049;-66
2021/11/04 01:01:03;;;;;;;22.45;10.27;;;;;;;4.53;53.08;100361.22;4981520;28;20113;-66
2021/11/04 01:03:28;;;;;;;21.77;10.73;;;;;;;4.45;53.52;100359.69;4981884;28;20728;-65
2021/11/04 01:05:54;;;;;;;31.83;11.90;;;;;;;4.25;53.26;100360.97;4981816;28;20034;-65
2021/11/04 01:08:20;;;;;;;27.30;10.20;;;;;;;4.19;53.62;100364.56;4981725;28;20504;-66
2021/11/04 01:10:45;;;;;;;23.50;10.40;;;;;;;4.19;53.86;100371.47;4986159;28;20078;-66
2021/11/04 01:13:11;;;;;;;28.98;11.32;;;;;;;4.14;53.83;100378.47;4985608;28;20471;-70
2021/11/04 01:15:36;;;;;;;26.67;11.13;;;;;;;4.10;54.12;100369.94;4985754;28;20038;-70
2021/11/04 01:18:02;;;;;;;22.60;12.25;;;;;;;4.13;54.01;100376.78;4985866;28;20042;-71
2021/11/04 01:20:27;;;;;;;18.45;9.93;;;;;;;4.05;53.75;100373.47;4985662;28;20053;-70
2021/11/04 01:22:53;;;;;;;25.85;10.73;;;;;;;4.07;53.71;100374.31;5001923;28;20045;-70
2021/11/04 01:25:19;;;;;;;22.02;10.45;;;;;;;4.02;53.69;100377.00;4987392;28;20780;-70
2021/11/04 01:27:45;;;;;;;20.60;10.70;;;;;;;4.04;54.32;100366.63;4999976;28;20046;-70
2021/11/04 01:30:10;;;;;;;45.67;11.45;;;;;;;4.12;53.87;100367.28;4987264;28;20038;-70
2021/11/04 01:32:36;;;;;;;21.52;9.88;;;;;;;4.13;54.01;100376.78;4983924;28;20503;-71
2021/11/04 01:35:03;;;;;;;22.88;9.77;;;;;;;4.12;53.84;100375.06;4985987;28;20483;-69
2021/11/04 01:37:29;;;;;;;27.23;11.70;;;;;;;4.02;53.71;100382.16;4984246;28;20034;-70
2021/11/04 01:39:54;;;;;;;21.02;10.98;;;;;;;3.95;53.80;100378.84;4987214;28;20480;-69
2021/11/04 01:42:20;;;;;;;20.98;10.85;;;;;;;3.86;53.97;100373.88;4985016;28;20065;-68
2021/11/04 01:44:46;;;;;;;21.98;10.35;;;;;;;3.85;54.06;100379.06;4983989;28;20038;-68
2021/11/04 01:47:13;;;;;;;25.38;10.55;;;;;;;3.79;54.04;100378.31;4984213;28;20057;-68
2021/11/04 01:49:41;;;;;;;24.15;11.13;;;;;;;3.73;53.96;100380.16;4984750;28;20034;-68
2021/11/04 01:52:08;;;;;;;32.45;10.65;;;;;;;3.62;53.95;100374.34;4982746;28;20602;-67
2021/11/04 01:54:34;;;;;;;52.20;11.30;;;;;;;3.56;53.92;100367.56;4985450;28;20577;-67
2021/11/04 01:56:59;;;;;;;19.30;9.43;;;;;;;3.54;54.13;100377.09;4984727;28;20518;-68
2021/11/04 01:59:25;;;;;;;23.08;10.23;;;;;;;3.61;54.16;100370.06;4985010;28;20569;-67
2021/11/04 02:01:59;;;;;;;25.67;10.02;;;;;;;3.57;54.01;100364.94;4984670;28;20514;-68
2021/11/04 02:04:41;;;;;;;15.82;8.63;;;;;;;3.50;53.75;100362.53;4984982;28;20034;-67
2021/11/04 02:07:32;;;;;;;29.30;9.48;;;;;;;3.42;53.84;100357.47;4984173;28;20069;-68
2021/11/04 02:10:00;;;;;;;18.95;8.73;;;;;;;3.45;54.32;100360.03;5000372;28;20527;-70
2021/11/04 02:12:40;;;;;;;17.58;9.50;;;;;;;3.60;53.65;100361.44;4982748;28;20121;-68
2021/11/04 02:15:06;;;;;;;14.70;7.95;;;;;;;3.63;53.74;100357.94;4985542;28;20077;-67
2021/11/04 02:17:34;;;;;;;16.67;9.05;;;;;;;3.46;53.25;100355.69;4983042;28;20058;-67
2021/11/04 02:20:00;;;;;;;18.10;9.07;;;;;;;3.37;53.75;100362.72;4983242;28;20038;-68
2021/11/04 02:22:57;;;;;;;19.80;8.98;;;;;;;3.33;53.99;100365.41;4983182;28;20113;-68
2021/11/04 02:25:30;;;;;;;15.73;9.25;;;;;;;3.36;53.68;100355.88;5001895;28;20042;-66
2021/11/04 02:27:59;;;;;;;15.85;8.82;;;;;;;3.25;53.74;100362.06;5000172;28;20042;-67
2021/11/04 02:30:27;;;;;;;16.02;9.07;;;;;;;3.23;54.02;100363.84;4998357;28;20042;-69
2021/11/04 02:32:55;;;;;;;19.23;9.75;;;;;;;3.35;53.99;100358.47;5015282;28;20046;-67
2021/11/04 02:35:21;;;;;;;27.27;8.68;;;;;;;3.38;54.18;100358.41;5003167;28;20111;-68
2021/11/04 02:37:50;;;;;;;17.45;9.00;;;;;;;3.33;53.90;100360.22;4998920;28;20040;-68
2021/11/04 02:40:16;;;;;;;18.00;9.55;;;;;;;3.28;54.11;100356.84;5002821;28;20038;-69
2021/11/04 02:42:42;;;;;;;14.05;8.73;;;;;;;3.29;53.96;100358.59;4994501;28;20038;-68
2021/11/04 02:45:09;;;;;;;17.40;9.00;;;;;;;3.29;54.14;100348.25;5001669;28;20022;-68
2021/11/04 02:47:39;;;;;;;16.08;9.13;;;;;;;3.30;54.13;100345.66;4983503;28;20061;-69
2021/11/04 02:50:07;;;;;;;15.43;8.32;;;;;;;3.37;54.04;100346.38;4986276;28;20060;-68
2021/11/04 02:52:32;;;;;;;19.45;9.20;;;;;;;3.43;53.98;100335.94;4985237;28;20134;-68
2021/11/04 02:54:59;;;;;;;22.33;10.65;;;;;;;3.37;53.77;100348.97;5000325;28;20130;-68
2021/11/04 02:57:26;;;;;;;15.63;8.85;;;;;;;3.33;54.37;100340.41;4964549;28;20056;-69
2021/11/04 02:59:52;;;;;;;17.33;9.23;;;;;;;3.29;54.21;100345.66;5000777;28;20491;-69
2021/11/04 03:02:17;;;;;;;21.30;10.05;;;;;;;3.31;54.35;100346.50;4985054;28;20057;-70
2021/11/04 03:04:43;;;;;;;16.17;8.57;;;;;;;3.46;54.00;100337.63;4985643;28;20034;-70
2021/11/04 03:07:09;;;;;;;32.35;10.18;;;;;;;3.44;53.77;100336.78;4984226;28;20520;-70
2021/11/04 03:09:34;;;;;;;27.08;10.48;;;;;;;3.43;53.75;100333.38;4984637;28;20392;-70
2021/11/04 03:12:00;;;;;;;21.00;9.60;;;;;;;3.36;53.79;100340.38;4984675;28;20053;-70
2021/11/04 03:14:26;;;;;;;25.00;10.15;;;;;;;3.26;54.14;100337.94;4984780;28;20049;-69
2021/11/04 03:16:54;;;;;;;21.17;8.90;;;;;;;3.21;53.94;100347.53;4983693;28;20030;-69
2021/11/04 03:19:22;;;;;;;19.27;8.25;;;;;;;3.15;54.15;100341.56;4998600;28;20110;-69
2021/11/04 03:21:52;;;;;;;17.70;9.63;;;;;;;3.26;53.81;100343.97;4998992;28;20053;-69
2021/11/04 03:24:20;;;;;;;16.02;8.35;;;;;;;3.27;53.95;100347.38;4976389;28;20470;-70
2021/11/04 03:26:52;;;;;;;22.58;8.65;;;;;;;3.35;53.93;100341.25;4984382;28;20042;-69
2021/11/04 03:29:19;;;;;;;13.45;8.55;;;;;;;3.42;53.54;100346.31;4983313;28;20111;-70
2021/11/04 03:31:46;;;;;;;13.63;8.23;;;;;;;3.32;53.64;100345.63;4983008;28;20700;-69
2021/11/04 03:34:12;;;;;;;17.10;8.18;;;;;;;3.25;53.74;100351.72;4984413;28;20027;-70
2021/11/04 03:36:41;;;;;;;13.02;7.60;;;;;;;3.29;53.75;100348.25;4985009;28;20117;-66
2021/11/04 03:39:07;;;;;;;13.75;7.15;;;;;;;3.33;53.63;100355.91;4971197;28;20053;-66
2021/11/04 03:41:34;;;;;;;22.88;8.50;;;;;;;3.36;53.98;100357.63;4986824;28;20034;-65
2021/11/04 03:44:01;;;;;;;13.98;7.80;;;;;;;3.47;53.48;100358.25;4982882;28;20038;-64
2021/11/04 03:46:26;;;;;;;17.35;9.23;;;;;;;3.50;53.78;100371.13;4982531;28;20050;-65
2021/11/04 03:48:53;;;;;;;20.42;9.00;;;;;;;3.49;53.87;100353.94;4983498;28;20073;-65
2021/11/04 03:51:21;;;;;;;19.27;8.45;;;;;;;3.53;53.97;100362.44;4983052;28;20065;-65
2021/11/04 03:53:46;;;;;;;18.98;9.38;;;;;;;3.42;53.49;100367.81;4997984;28;20484;-65
2021/11/04 03:56:13;;;;;;;17.55;9.15;;;;;;;3.67;53.50;100365.66;4982742;28;20030;-64
2021/11/04 03:58:40;;;;;;;20.02;10.18;;;;;;;3.64;53.98;100365.69;4982864;28;20156;-64
2021/11/04 04:01:07;;;;;;;17.88;8.60;;;;;;;3.71;53.70;100371.59;4982683;28;20953;-64
2021/11/04 04:03:32;;;;;;;16.98;9.45;;;;;;;3.79;53.83;100370.56;4982652;28;20688;-66
2021/11/04 04:06:07;;;;;;;23.80;10.02;;;;;;;3.79;53.88;100369.72;4983570;28;20034;-66
2021/11/04 04:08:35;;;;;;;19.85;10.18;;;;;;;3.77;53.32;100367.16;4982373;28;20050;-66
2021/11/04 04:11:05;;;;;;;21.75;10.40;;;;;;;3.70;53.53;100375.91;4982497;28;20142;-69
2021/11/04 04:13:31;;;;;;;18.45;8.75;;;;;;;3.75;53.34;100375.81;4996564;28;20050;-69
2021/11/04 04:15:57;;;;;;;18.60;10.07;;;;;;;3.77;53.70;100374.91;4982776;28;20088;-67
2021/11/04 04:18:22;;;;;;;19.98;8.70;;;;;;;3.80;53.56;100369.66;4981060;28;20042;-68
2021/11/04 04:20:48;;;;;;;14.65;8.55;;;;;;;3.85;53.43;100381.66;4982995;28;20034;-67
2021/11/04 04:23:14;;;;;;;17.40;8.80;;;;;;;3.84;53.30;100378.22;4981209;28;20621;-67
2021/11/04 04:25:40;;;;;;;17.75;10.18;;;;;;;3.73;53.23;100385.34;4984108;28;20045;-68
2021/11/04 04:28:05;;;;;;;16.52;8.50;;;;;;;3.66;53.44;100383.75;4982071;28;20495;-67
2021/11/04 04:30:31;;;;;;;16.75;8.75;;;;;;;3.56;53.42;100389.09;4985629;28;20109;-67
2021/11/04 04:32:57;;;;;;;18.65;8.52;;;;;;;3.50;53.53;100386.63;4982108;28;20042;-66
2021/11/04 04:35:22;;;;;;;13.68;8.13;;;;;;;3.49;53.72;100382.34;4983386;28;20061;-69
2021/11/04 04:37:48;;;;;;;14.18;7.13;;;;;;;3.72;53.47;100386.22;4982273;28;20108;-68
2021/11/04 04:40:13;;;;;;;18.30;8.38;;;;;;;3.71;53.10;100387.09;4984519;28;20465;-70
2021/11/04 04:42:39;;;;;;;15.98;8.60;;;;;;;3.66;53.32;100384.59;4985496;28;20062;-69
2021/11/04 04:45:06;;;;;;;13.75;7.85;;;;;;;3.62;53.06;100382.09;4988025;28;20149;-71
2021/11/04 04:47:31;;;;;;;12.32;7.20;;;;;;;3.58;53.09;100387.34;4966570;28;20050;-70
2021/11/04 04:50:00;;;;;;;13.60;7.05;;;;;;;3.40;53.08;100379.91;4997114;28;20165;-70
2021/11/04 04:52:29;;;;;;;16.77;9.05;;;;;;;3.29;53.16;100392.16;4985673;28;20484;-68
2021/11/04 04:54:55;;;;;;;13.60;7.43;;;;;;;3.31;53.50;100398.16;4987302;28;20085;-67
2021/11/04 04:57:24;;;;;;;15.52;7.13;;;;;;;3.31;53.34;100396.41;4964548;28;20073;-67
2021/11/04 04:59:51;;;;;;;12.68;7.03;;;;;;;3.16;53.25;100394.94;4996747;28;20089;-67
2021/11/04 05:02:18;;;;;;;9.63;6.25;;;;;;;3.08;53.54;100403.69;4986417;28;20049;-69
2021/11/04 05:04:44;;;;;;;16.38;8.15;;;;;;;3.21;53.05;100399.19;4986656;28;20261;-67
2021/11/04 05:07:09;;;;;;;11.27;6.82;;;;;;;3.28;52.99;100398.19;4986886;28;20038;-68
2021/11/04 05:09:34;;;;;;;12.60;6.93;;;;;;;3.27;52.97;100409.38;4986383;28;20065;-65
2021/11/04 05:12:00;;;;;;;12.63;7.07;;;;;;;3.17;53.15;100401.78;4986320;28;20546;-66
2021/11/04 05:14:26;;;;;;;11.60;6.82;;;;;;;3.06;53.05;100403.69;4984373;28;20084;-65
2021/11/04 05:16:52;;;;;;;12.98;6.55;;;;;;;3.05;53.23;100412.34;4985909;28;20022;-66
2021/11/04 05:19:17;;;;;;;12.95;7.30;;;;;;;2.97;53.22;100415.03;4986268;28;20127;-72
2021/11/04 05:21:43;;;;;;;12.50;6.93;;;;;;;2.91;53.35;100411.69;4986216;28;20034;-67
2021/11/04 05:24:09;;;;;;;9.45;6.47;;;;;;;2.88;53.29;100409.16;4986062;28;20054;-67
2021/11/04 05:26:37;;;;;;;11.15;6.28;;;;;;;2.94;53.37;100411.66;4986191;28;20224;-65
2021/11/04 05:29:04;;;;;;;9.05;6.47;;;;;;;3.02;53.15;100420.13;4985255;28;20045;-66
2021/11/04 05:31:29;;;;;;;12.93;6.45;;;;;;;3.09;53.15;100410.53;4984984;28;20478;-70
2021/11/04 05:33:55;;;;;;;11.20;6.07;;;;;;;3.06;52.87;100418.34;4987927;28;20282;-69
2021/11/04 05:36:22;;;;;;;17.38;6.72;;;;;;;3.00;53.23;100424.44;4985610;28;20097;-69
2021/11/04 05:38:49;;;;;;;14.30;8.45;;;;;;;2.85;53.32;100427.28;4984504;28;20038;-69
2021/11/04 05:41:14;;;;;;;13.95;7.90;;;;;;;2.82;53.38;100435.06;4986164;28;20162;-69
2021/11/04 05:43:40;;;;;;;12.77;6.95;;;;;;;2.84;53.73;100451.38;4985769;28;20187;-70
2021/11/04 05:46:05;;;;;;;16.05;8.35;;;;;;;2.96;53.44;100443.47;4984218;28;20552;-69
2021/11/04 05:48:31;;;;;;;15.23;7.75;;;;;;;3.00;53.45;100444.25;4983584;28;20038;-69
2021/11/04 05:50:56;;;;;;;16.05;8.25;;;;;;;3.13;53.09;100436.28;4985752;28;20293;-68
2021/11/04 05:53:23;;;;;;;18.63;8.20;;;;;;;3.12;53.06;100450.09;4984389;28;20074;-67
2021/11/04 05:55:49;;;;;;;19.13;8.02;;;;;;;3.17;53.03;100447.44;4984600;28;20053;-67
2021/11/04 05:58:15;;;;;;;20.77;10.25;;;;;;;3.22;53.02;100449.94;4984568;28;20039;-67
2021/11/04 06:00:41;;;;;;;17.90;7.80;;;;;;;3.27;52.60;100453.28;4984350;28;20022;-67
2021/11/04 06:03:06;;;;;;;16.33;7.68;;;;;;;3.29;52.77;100447.28;4983945;28;20451;-67
2021/11/04 06:05:32;;;;;;;17.08;8.32;;;;;;;3.25;52.47;100444.72;4984549;28;20061;-67
2021/11/04 06:07:57;;;;;;;16.55;8.85;;;;;;;3.22;52.93;100444.78;4989723;23;20051;-68
2021/11/04 06:10:23;;;;;;;19.02;8.18;;;;;;;3.21;52.66;100448.25;4969084;28;20079;-68
2021/11/04 06:12:48;;;;;;;15.05;8.77;;;;;;;3.22;53.06;100460.28;4942501;28;20042;-66
2021/11/04 06:15:13;;;;;;;19.42;8.65;;;;;;;3.21;52.76;100464.59;4976960;28;20148;-67
2021/11/04 06:17:39;;;;;;;17.65;8.98;;;;;;;3.28;52.98;100465.34;4968155;28;20042;-67
2021/11/04 06:20:05;;;;;;;17.17;8.32;;;;;;;3.30;52.96;100458.47;4985689;28;20038;-67
2021/11/04 06:22:30;;;;;;;19.60;9.18;;;;;;;3.34;53.15;100460.97;4983626;28;20458;-67
2021/11/04 06:24:56;;;;;;;14.95;7.82;;;;;;;3.45;52.90;100458.22;4969128;28;20037;-71
2021/11/04 06:27:22;;;;;;;14.75;7.63;;;;;;;3.46;52.74;100459.91;4985726;28;20121;-71
2021/11/04 06:29:47;;;;;;;14.45;8.73;;;;;;;3.55;52.76;100457.16;4985652;28;20134;-71
2021/11/04 06:32:13;;;;;;;15.88;8.98;;;;;;;3.49;52.52;100459.88;4984471;28;20042;-71
2021/11/04 06:34:38;;;;;;;17.45;8.75;;;;;;;3.43;52.71;100459.97;4985346;28;20054;-70
2021/11/04 06:37:03;;;;;;;14.45;7.93;;;;;;;3.48;52.79;100452.97;4984554;28;20129;-72
2021/11/04 06:39:29;;;;;;;12.85;6.88;;;;;;;3.55;52.66;100458.88;4989845;28;20026;-70
2021/11/04 06:41:54;;;;;;;17.00;8.75;;;;;;;3.47;52.54;100461.63;4985164;28;20113;-68
2021/11/04 06:44:20;;;;;;;19.50;9.27;;;;;;;3.47;52.55;100459.03;4987191;28;20080;-69
2021/11/04 06:46:49;;;;;;;21.88;9.43;;;;;;;3.43;52.53;100465.13;4985008;28;20109;-67
2021/11/04 06:49:17;;;;;;;15.07;7.93;;;;;;;3.44;52.58;100460.81;4986868;28;20038;-67
2021/11/04 06:51:47;;;;;;;17.23;8.35;;;;;;;3.44;52.64;100456.47;4984908;28;20038;-69
2021/11/04 06:54:14;;;;;;;18.42;9.88;;;;;;;3.45;52.45;100458.22;4965626;28;20464;-72
2021/11/04 06:56:46;;;;;;;17.92;9.63;;;;;;;3.43;51.93;100465.13;4967119;28;20030;-70
2021/11/04 06:59:24;;;;;;;13.03;5.70;;;;;;;3.31;52.17;100465.31;4983968;28;20049;-66
2021/11/04 07:02:00;;;;;;;17.00;8.02;;;;;;;3.21;52.49;100462.00;4981367;28;20713;-66
2021/11/04 07:04:31;;;;;;;13.02;7.25;;;;;;;3.18;52.43;100468.06;4963318;28;20227;-67
2021/11/04 07:07:02;;;;;;;18.45;8.93;;;;;;;3.24;52.46;100463.69;4982096;28;20089;-68
2021/11/04 07:09:32;;;;;;;16.23;9.68;;;;;;;3.21;52.37;100466.31;4985808;28;20112;-68
2021/11/04 07:11:59;;;;;;;17.40;8.07;;;;;;;3.23;52.37;100464.56;4983992;28;20064;-67
2021/11/04 07:14:32;;;;;;;18.75;8.68;;;;;;;3.23;52.45;100464.56;4985598;28;20133;-67
2021/11/04 07:17:00;;;;;;;14.85;8.07;;;;;;;3.27;52.46;100479.13;4966461;28;20376;-67
2021/11/04 07:19:27;;;;;;;17.08;7.78;;;;;;;3.26;52.28;100477.44;4984708;28;20050;-70
2021/11/04 07:22:07;;;;;;;16.88;8.90;;;;;;;3.25;52.31;100479.16;4962864;28;20054;-68
2021/11/04 07:24:43;;;;;;;16.95;8.98;;;;;;;3.28;52.34;100471.34;4986418;28;20048;-68
2021/11/04 07:27:15;;;;;;;15.98;8.48;;;;;;;3.35;52.41;100478.16;4964696;28;20042;-68
2021/11/04 07:29:43;;;;;;;;;;;;;;;3.49;52.27;100480.53;4965172;28;20035;-66
2021/11/04 07:32:14;;;;;;;14.40;8.32;;;;;;;3.56;52.13;100470.91;4963088;28;20031;-66
2021/11/04 07:34:42;;;;;;;14.77;8.07;;;;;;;3.62;51.60;100480.31;4964591;28;20097;-67
2021/11/04 07:37:11;;;;;;;13.00;7.47;;;;;;;3.71;51.93;100474.97;4963684;28;20038;-66
2021/11/04 07:39:39;;;;;;;13.27;7.50;;;;;;;3.67;52.00;100473.31;4946079;28;20399;-66
2021/11/04 07:42:07;;;;;;;12.20;7.05;;;;;;;3.62;51.81;100477.72;4963201;28;20034;-66
2021/11/04 07:44:34;;;;;;;15.18;8.95;;;;;;;3.73;52.30;100480.97;4959430;28;20304;-66
2021/11/04 07:47:01;;;;;;;10.93;7.57;;;;;;;3.90;51.79;100486.69;4963182;28;20058;-66
2021/11/04 07:49:26;;;;;;;12.77;7.15;;;;;;;4.06;51.57;100491.59;4959684;28;20046;-65
2021/11/04 07:51:56;;;;;;;16.95;8.20;;;;;;;4.13;51.20;100488.00;4961408;28;20058;-65
2021/11/04 07:54:21;;;;;;;18.98;10.15;;;;;;;4.14;51.11;100495.72;4942122;28;20035;-65
2021/11/04 07:56:47;;;;;;;17.67;9.30;;;;;;;4.19;51.07;100500.81;4960388;28;20030;-65
2021/11/04 07:59:13;;;;;;;19.30;9.15;;;;;;;4.22;50.72;100508.50;4957702;28;20042;-67
2021/11/04 08:01:38;;;;;;;18.70;11.55;;;;;;;4.34;51.10;100505.69;4958119;28;20190;-65
2021/11/04 08:04:03;;;;;;;17.65;8.95;;;;;;;4.69;51.31;100504.09;4957199;28;20046;-65
2021/11/04 08:06:30;;;;;;;12.88;7.63;;;;;;;4.93;51.04;100505.34;4961367;28;20089;-65
2021/11/04 08:08:55;;;;;;;11.35;6.88;;;;;;;5.26;50.91;100502.88;4955930;28;20167;-65
2021/11/04 08:11:21;;;;;;;12.20;7.43;;;;;;;5.67;50.09;100507.00;4961797;28;20042;-65
2021/11/04 08:13:46;;;;;;;11.40;6.47;;;;;;;6.20;50.47;100505.66;4963679;28;20403;-65
2021/11/04 08:16:12;;;;;;;12.88;7.18;;;;;;;6.92;48.33;100506.16;4963485;28;20039;-66
2021/11/04 08:18:37;;;;;;;11.45;7.15;;;;;;;7.36;48.24;100495.28;4962397;28;20397;-66
2021/11/04 08:21:02;;;;;;;10.60;6.28;;;;;;;7.50;48.27;100508.69;4960383;28;20418;-66
2021/11/04 08:23:29;;;;;;;12.18;6.55;;;;;;;7.57;47.82;100505.00;4961860;28;20051;-66
2021/11/04 08:25:54;;;;;;;11.30;5.78;;;;;;;7.61;47.39;100501.41;4944952;28;20054;-66
2021/11/04 08:28:20;;;;;;;9.38;5.47;;;;;;;7.60;47.26;100504.03;4963245;28;20051;-66
2021/11/04 08:30:46;;;;;;;9.63;5.60;;;;;;;7.65;47.32;100503.00;4969057;28;20057;-65
2021/11/04 08:33:12;;;;;;;10.63;5.45;;;;;;;7.66;48.05;100502.09;4963065;28;20496;-65
2021/11/04 08:35:37;;;;;;;8.23;4.88;;;;;;;7.68;47.21;100504.63;4962453;28;20043;-65
2021/11/04 08:38:03;;;;;;;7.50;4.45;;;;;;;7.71;47.73;100507.13;4961795;28;20046;-66
2021/11/04 08:40:28;;;;;;;5.70;4.03;;;;;;;7.83;47.43;100506.72;4963497;28;20416;-67
2021/11/04 08:42:54;;;;;;;6.40;4.72;;;;;;;7.99;46.54;100501.00;4946119;28;20360;-65
2021/11/04 08:45:19;;;;;;;5.32;4.07;;;;;;;8.26;46.85;100504.34;4969857;28;20034;-65
2021/11/04 08:47:45;;;;;;;3.92;3.13;;;;;;;8.23;47.25;100507.09;4967139;28;20535;-66
2021/11/04 08:50:11;;;;;;;4.85;3.10;;;;;;;8.47;46.36;100506.19;4965966;28;20138;-65
2021/11/04 08:52:38;;;;;;;5.05;3.60;;;;;;;8.47;47.14;100508.78;4966013;28;20065;-65
2021/11/04 08:55:05;;;;;;;6.70;3.42;;;;;;;8.71;47.25;100508.78;4965667;28;20031;-65
2021/11/04 08:57:31;;;;;;;8.45;3.40;;;;;;;8.77;46.49;100506.81;4962387;28;20117;-65
2021/11/04 08:59:56;;;;;;;4.47;3.60;;;;;;;9.00;46.18;100512.03;4963279;28;20404;-66
2021/11/04 09:02:22;;;;;;;5.38;4.40;;;;;;;9.16;46.29;100515.72;4963581;28;20050;-66
2021/11/04 09:04:48;;;;;;;5.75;4.13;;;;;;;9.27;45.86;100513.53;4963804;28;20097;-66
2021/11/04 09:07:16;;;;;;;8.85;3.50;;;;;;;9.07;46.20;100529.97;4942714;28;20132;-66
2021/11/04 09:09:42;;;;;;;5.32;3.65;;;;;;;8.89;45.38;100531.53;4960088;28;20432;-66
2021/11/04 09:12:08;;;;;;;6.07;3.72;;;;;;;8.79;46.19;100530.22;4960149;28;20042;-66
2021/11/04 09:14:34;;;;;;;4.10;2.58;;;;;;;8.72;46.76;100524.38;4964167;28;20517;-65
2021/11/04 09:17:01;;;;;;;5.32;3.00;;;;;;;8.65;46.78;100530.69;4963209;28;20026;-66
2021/11/04 09:19:26;;;;;;;8.60;3.83;;;;;;;8.52;47.94;100527.69;4964522;28;20039;-65
2021/11/04 09:21:52;;;;;;;8.13;4.93;;;;;;;8.51;47.88;100530.34;4960483;28;20065;-65
2021/11/04 09:24:17;;;;;;;10.18;5.05;;;;;;;8.31;48.04;100533.69;4961430;28;20512;-66
2021/11/04 09:26:43;;;;;;;12.90;5.90;;;;;;;8.41;48.38;100532.44;4960403;28;20043;-65
2021/11/04 09:29:08;;;;;;;7.75;4.63;;;;;;;8.41;48.74;100532.44;4962788;28;20050;-67
2021/11/04 09:31:34;;;;;;;6.93;4.10;;;;;;;8.44;48.43;100537.53;4959292;28;20423;-65
2021/11/04 09:34:00;;;;;;;14.15;8.00;;;;;;;8.69;48.36;100534.88;4942956;28;20051;-65
2021/11/04 09:36:28;;;;;;;12.10;5.80;;;;;;;8.76;48.39;100539.00;4961701;28;20161;-65
2021/11/04 09:38:56;;;;;;;11.18;4.25;;;;;;;8.74;48.09;100543.41;4962332;28;20637;-66
2021/11/04 09:41:21;;;;;;;4.90;3.20;;;;;;;8.72;47.39;100545.22;4963714;28;20066;-67
2021/11/04 09:43:47;;;;;;;4.63;2.55;;;;;;;8.68;47.59;100548.81;4960643;28;20077;-66
2021/11/04 09:46:13;;;;;;;6.57;4.25;;;;;;;8.78;47.91;100538.91;4963519;28;20578;-66
2021/11/04 09:48:39;;;;;;;4.25;3.08;;;;;;;8.78;48.25;100544.13;4953700;28;20130;-67
2021/11/04 09:51:06;;;;;;;7.00;3.95;;;;;;;8.97;48.60;100544.28;4961742;28;20030;-67
2021/11/04 09:53:32;;;;;;;3.65;2.50;;;;;;;9.01;47.99;100540.66;4941473;28;20096;-66
2021/11/04 09:56:02;;;;;;;5.32;2.30;;;;;;;8.96;47.86;100547.78;4962253;28;20448;-68
2021/11/04 09:58:29;;;;;;;5.13;3.60;;;;;;;9.17;48.26;100543.53;4959416;28;20483;-66
2021/11/04 10:00:55;;;;;;;5.45;2.20;;;;;;;9.06;48.28;100540.47;4959833;28;20257;-67
2021/11/04 10:03:20;;;;;;;4.65;2.95;;;;;;;8.96;47.73;100543.44;4958900;28;20061;-66
2021/11/04 10:05:54;;;;;;;4.63;2.47;;;;;;;9.02;48.42;100542.34;4962456;28;20041;-65
2021/11/04 10:08:38;;;;;;;4.30;2.70;;;;;;;8.95;47.98;100546.09;4956283;28;20554;-69
2021/11/04 10:11:06;;;;;;;8.80;2.03;;;;;;;8.99;47.98;100542.47;4962082;28;20125;-66
2021/11/04 10:13:33;;;;;;;4.88;1.73;;;;;;;8.85;48.52;100542.13;4954710;28;20037;-68
2021/11/04 10:16:00;;;;;;;3.65;2.22;;;;;;;8.89;48.39;100541.97;4944230;28;20390;-66
2021/11/04 10:18:38;;;;;;;5.95;1.85;;;;;;;8.88;48.00;100537.69;4958172;28;20057;-68
2021/11/04 10:21:04;;;;;;;2.97;1.95;;;;;;;9.01;48.58;100545.00;4958036;28;20035;-66
2021/11/04 10:23:41;;;;;;;4.72;1.88;;;;;;;8.91;48.68;100545.38;4962183;28;20113;-66
2021/11/04 10:26:07;;;;;;;3.40;2.10;;;;;;;8.95;48.45;100551.31;4959530;28;20039;-66
2021/11/04 10:28:36;;;;;;;3.38;1.60;;;;;;;8.96;48.24;100548.66;4961586;28;20039;-66
2021/11/04 10:31:02;;;;;;;3.67;1.67;;;;;;;9.01;48.22;100551.09;4958462;28;20030;-66
2021/11/04 10:33:30;;;;;;;6.72;2.58;;;;;;;8.98;48.35;100546.84;4959498;28;20329;-66
2021/11/04 10:36:10;;;;;;;4.13;2.50;;;;;;;9.31;48.06;100546.41;4959646;28;20256;-66
2021/11/04 10:38:37;;;;;;;4.38;2.50;;;;;;;9.76;46.79;100544.59;4938622;28;20494;-67
2021/11/04 10:41:11;;;;;;;3.28;1.92;;;;;;;10.01;46.78;100536.59;4940226;28;20445;-66
2021/11/04 10:43:38;;;;;;;4.05;1.95;;;;;;;10.24;46.29;100540.00;4955686;28;20518;-67
2021/11/04 10:46:12;;;;;;;2.83;2.00;;;;;;;10.37;45.35;100531.56;4956422;28;20171;-67
2021/11/04 10:48:40;;;;;;;4.53;1.65;;;;;;;9.85;44.94;100532.97;4967875;28;20138;-67
2021/11/04 10:51:06;;;;;;;2.80;1.20;;;;;;;9.47;45.56;100535.38;4963005;28;20101;-66
2021/11/04 10:53:32;;;;;;;3.55;1.65;;;;;;;9.34;45.95;100538.50;4958472;28;20134;-67
2021/11/04 10:56:17;;;;;;;2.90;1.08;;;;;;;9.54;45.82;100528.97;4962371;28;20042;-67
2021/11/04 10:58:50;;;;;;;2.92;1.27;;;;;;;9.69;45.51;100532.72;4956397;28;20066;-66
2021/11/04 11:01:30;;;;;;;5.05;1.23;;;;;;;9.86;45.11;100530.28;4963738;28;20496;-66
2021/11/04 11:04:04;;;;;;;1.40;0.70;;;;;;;10.02;45.26;100526.09;4960597;28;20053;-66
2021/11/04 11:06:35;;;;;;;3.17;1.00;;;;;;;10.32;44.23;100527.44;4960225;28;20518;-66
2021/11/04 11:09:05;;;;;;;1.88;0.98;;;;;;;10.49;42.90;100535.38;4959636;28;20500;-66
2021/11/04 11:11:30;;;;;;;1.35;0.60;;;;;;;9.92;42.55;100529.16;4972524;28;20038;-68
2021/11/04 11:13:55;;;;;;;1.50;0.70;;;;;;;9.43;43.82;100531.19;4960088;28;20043;-66
2021/11/04 11:16:21;;;;;;;1.02;0.55;;;;;;;9.55;43.93;100530.69;4961885;28;20039;-66
2021/11/04 11:18:46;;;;;;;2.08;1.00;;;;;;;9.56;43.73;100532.38;4972398;28;20049;-66
2021/11/04 11:21:12;;;;;;;4.53;1.02;;;;;;;9.45;44.24;100538.03;4962718;28;20097;-67
2021/11/04 11:23:38;;;;;;;4.40;0.52;;;;;;;9.22;44.79;100533.75;4960746;28;20404;-67
2021/11/04 11:26:09;;;;;;;2.95;0.30;;;;;;;8.93;44.78;100534.88;4973853;28;20039;-66